Time;durP1;ratioP1;P1;durP2;ratioP2;P2;SDS_P1;SDS_P2;PMS_P1;PMS_P2;Temp;Humidity;BMP_temperature;BMP_pressure;BME280_temperature;BME280_humidity;BME280_pressure;Samples;Min_cycle;Max_cycle;Signal;HPM_P1;HPM_P2
2022/09/27 00:01:40;;;;;;;0.82;0.40;;;11.00;99.90;;;;;;5084945;28;20021;-37
2022/09/27 00:04:06;;;;;;;1.33;0.50;;;11.00;99.90;;;;;;5082121;28;20071;-35
2022/09/27 00:06:31;;;;;;;3.92;0.82;;;11.00;99.90;;;;;;5079319;28;20059;-33
2022/09/27 00:08:58;;;;;;;0.77;0.30;;;11.10;99.90;;;;;;5087037;28;20073;-34
2022/09/27 00:11:30;;;;;;;5.38;0.60;;;11.00;99.90;;;;;;5082136;28;20024;-34
2022/09/27 00:13:57;;;;;;;3.25;0.50;;;11.00;99.90;;;;;;5082695;28;20511;-35
2022/09/27 00:16:25;;;;;;;3.83;0.60;;;11.00;99.90;;;;;;5092486;28;20012;-36
2022/09/27 00:18:51;;;;;;;3.22;0.77;;;11.00;99.90;;;;;;5078458;28;20031;-35
2022/09/27 00:21:16;;;;;;;2.17;0.50;;;11.00;99.90;;;;;;5067348;28;20533;-31
2022/09/27 00:23:42;;;;;;;8.35;1.27;;;11.00;99.90;;;;;;5082587;28;20123;-36
2022/09/27 00:26:11;;;;;;;3.58;0.30;;;11.00;99.90;;;;;;5084053;28;20032;-33
2022/09/27 00:28:37;;;;;;;2.72;0.40;;;11.00;99.90;;;;;;5081891;28;20453;-34
2022/09/27 00:31:03;;;;;;;4.82;0.70;;;10.90;99.90;;;;;;5087061;28;20480;-31
2022/09/27 00:33:29;;;;;;;3.25;0.60;;;10.90;99.90;;;;;;5093436;28;20472;-37
2022/09/27 00:36:03;;;;;;;0.43;0.20;;;10.90;99.90;;;;;;5092135;28;20028;-31
2022/09/27 00:38:29;;;;;;;1.83;0.28;;;10.90;99.90;;;;;;5064327;28;20029;-34
2022/09/27 00:40:54;;;;;;;1.90;0.32;;;10.90;99.90;;;;;;5093208;28;20086;-33
2022/09/27 00:43:22;;;;;;;4.22;0.63;;;10.90;99.90;;;;;;5074822;28;20032;-37
2022/09/27 00:45:55;;;;;;;;;;;10.90;99.90;;;;;;5091345;28;20107;-39
2022/09/27 00:48:26;;;;;;;3.50;0.95;;;10.90;99.90;;;;;;5055593;28;20390;-37
2022/09/27 00:50:56;;;;;;;3.00;0.30;;;10.90;99.90;;;;;;5080355;28;20021;-35
2022/09/27 00:53:32;;;;;;;1.90;0.60;;;10.90;99.90;;;;;;5073394;28;20032;-36
2022/09/27 00:56:07;;;;;;;2.63;0.60;;;10.90;99.90;;;;;;5082252;28;20103;-37
2022/09/27 00:58:38;;;;;;;1.38;0.40;;;10.90;99.90;;;;;;5081309;28;20570;-37
2022/09/27 01:01:09;;;;;;;1.27;0.35;;;10.80;99.90;;;;;;5079824;28;20105;-34
2022/09/27 01:04:01;;;;;;;3.13;0.40;;;10.80;99.90;;;;;;5083251;28;20506;-33
2022/09/27 01:06:29;;;;;;;4.43;0.50;;;10.80;99.90;;;;;;5087248;28;20424;-35
2022/09/27 01:08:55;;;;;;;0.57;0.40;;;10.80;99.90;;;;;;5082647;28;20028;-37
2022/09/27 01:11:33;;;;;;;0.75;0.63;;;10.80;99.90;;;;;;5093224;28;20027;-34
2022/09/27 01:14:14;;;;;;;3.70;0.80;;;10.80;99.90;;;;;;5090342;28;20494;-31
2022/09/27 01:16:43;;;;;;;1.27;0.65;;;10.90;99.90;;;;;;5081320;28;20033;-53
2022/09/27 01:19:24;;;;;;;4.75;1.02;;;10.90;99.90;;;;;;5084427;28;20156;-34
2022/09/27 01:22:12;;;;;;;8.57;0.47;;;10.90;99.90;;;;;;5090701;28;20028;-40
2022/09/27 01:24:43;;;;;;;4.05;0.30;;;10.90;99.90;;;;;;5083098;28;20044;-31
2022/09/27 01:27:14;;;;;;;4.53;0.85;;;10.80;99.90;;;;;;5090913;28;20036;-31
2022/09/27 01:30:11;;;;;;;2.88;0.30;;;10.80;99.90;;;;;;5081396;28;20535;-33
2022/09/27 01:32:46;;;;;;;1.73;0.57;;;10.80;99.90;;;;;;5079370;28;20035;-31
2022/09/27 01:35:34;;;;;;;3.47;0.25;;;10.80;99.90;;;;;;5072676;28;20040;-31
2022/09/27 01:38:11;;;;;;;4.93;0.70;;;10.80;99.90;;;;;;5075837;28;20483;-37
2022/09/27 01:40:36;;;;;;;0.85;0.40;;;10.70;99.90;;;;;;5078485;28;20576;-35
2022/09/27 01:43:15;;;;;;;2.30;0.60;;;10.70;99.90;;;;;;5087681;28;20040;-32
2022/09/27 01:46:19;;;;;;;5.18;0.70;;;10.70;99.90;;;;;;5091350;28;20036;-38
2022/09/27 01:48:48;;;;;;;2.38;1.00;;;10.60;99.90;;;;;;5006332;28;20080;-38
2022/09/27 01:51:49;;;;;;;1.98;0.43;;;10.50;99.90;;;;;;5068353;28;20043;-38
2022/09/27 01:54:21;;;;;;;1.77;0.60;;;10.50;99.90;;;;;;5074856;28;20032;-40
2022/09/27 01:56:51;;;;;;;6.03;0.40;;;10.50;99.90;;;;;;5072650;28;20568;-37
2022/09/27 01:59:21;;;;;;;1.30;0.40;;;10.40;99.90;;;;;;5074059;28;20106;-38
2022/09/27 02:01:50;;;;;;;1.50;0.45;;;10.40;99.90;;;;;;5078681;28;20093;-34
2022/09/27 02:04:23;;;;;;;2.95;0.50;;;10.40;99.90;;;;;;5080688;28;20502;-32
2022/09/27 02:06:55;;;;;;;3.50;0.68;;;10.40;99.90;;;;;;5086337;28;20480;-36
2022/09/27 02:09:32;;;;;;;6.38;0.60;;;10.30;99.90;;;;;;5076125;28;20495;-47
2022/09/27 02:12:04;;;;;;;0.97;0.27;;;10.30;99.90;;;;;;5088243;28;20495;-38
2022/09/27 02:14:46;;;;;;;2.90;0.50;;;10.30;99.90;;;;;;5080101;28;20638;-38
2022/09/27 02:17:11;;;;;;;1.55;0.60;;;10.30;99.90;;;;;;5084003;28;20078;-36
2022/09/27 02:20:06;;;;;;;3.13;0.52;;;10.40;99.90;;;;;;5083080;28;20033;-36
2022/09/27 02:22:56;;;;;;;3.65;0.75;;;10.40;99.90;;;;;;5092146;28;20032;-35
2022/09/27 02:25:29;;;;;;;4.63;1.13;;;10.50;99.90;;;;;;5088639;28;20083;-33
2022/09/27 02:28:22;;;;;;;9.50;0.75;;;10.50;99.90;;;;;;5083145;28;20503;-37
2022/09/27 02:30:47;;;;;;;1.85;0.40;;;10.50;99.90;;;;;;5075347;28;20024;-33
2022/09/27 02:33:13;;;;;;;1.77;0.32;;;10.40;99.90;;;;;;5084566;28;20531;-29
2022/09/27 02:35:39;;;;;;;3.85;0.55;;;10.40;99.90;;;;;;5084130;28;20032;-31
2022/09/27 02:38:06;;;;;;;2.97;0.60;;;10.40;99.90;;;;;;5086376;28;20464;-32
2022/09/27 02:40:35;;;;;;;6.88;0.73;;;10.40;99.90;;;;;;5095893;28;20034;-33
2022/09/27 02:43:04;;;;;;;2.92;0.70;;;10.40;99.90;;;;;;5082352;28;20492;-34
2022/09/27 02:45:43;;;;;;;2.72;0.98;;;10.30;99.90;;;;;;5082981;28;20028;-33
2022/09/27 02:48:29;;;;;;;3.78;0.88;;;10.30;99.90;;;;;;5092703;28;20024;-34
2022/09/27 02:51:13;;;;;;;0.85;0.40;;;10.30;99.90;;;;;;5084328;28;20154;-30
2022/09/27 02:54:03;;;;;;;2.20;0.70;;;10.30;99.90;;;;;;5075690;28;20496;-33
2022/09/27 02:56:42;;;;;;;2.05;0.70;;;10.30;99.90;;;;;;5094959;28;20110;-36
2022/09/27 02:59:27;;;;;;;4.38;0.60;;;10.30;99.90;;;;;;5090830;28;20744;-31
2022/09/27 03:02:22;;;;;;;3.92;0.60;;;10.30;99.90;;;;;;5084476;28;20089;-34
2022/09/27 03:04:55;;;;;;;1.33;0.65;;;10.30;99.90;;;;;;5092515;28;20048;-37
2022/09/27 03:07:21;;;;;;;6.40;0.80;;;10.30;99.90;;;;;;5077990;28;20032;-33
2022/09/27 03:09:50;;;;;;;7.95;1.02;;;10.30;99.90;;;;;;5079775;28;20025;-34
2022/09/27 03:12:21;;;;;;;4.43;0.75;;;10.30;99.90;;;;;;5088465;28;20036;-34
2022/09/27 03:17:31;;;;;;;5.70;0.70;;;10.30;99.90;;;;;;5094852;28;20051;-33
2022/09/27 03:19:56;;;;;;;3.17;0.50;;;10.30;99.90;;;;;;5088394;28;20025;-33
2022/09/27 03:22:22;;;;;;;2.25;1.02;;;10.30;99.90;;;;;;5076954;28;20119;-37
2022/09/27 03:24:48;;;;;;;6.35;1.20;;;10.40;99.90;;;;;;5085645;28;20404;-37
2022/09/27 03:27:13;;;;;;;11.48;0.63;;;10.40;99.90;;;;;;5078740;28;20020;-34
2022/09/27 03:29:39;;;;;;;5.10;0.60;;;10.40;99.90;;;;;;5091068;28;20055;-36
2022/09/27 03:32:04;;;;;;;5.32;0.88;;;10.40;99.90;;;;;;5070742;28;20487;-33
2022/09/27 03:34:30;;;;;;;8.68;0.82;;;10.40;99.90;;;;;;5084285;28;20020;-32
2022/09/27 03:36:56;;;;;;;2.50;0.50;;;10.30;99.90;;;;;;5088318;28;20070;-39
2022/09/27 03:39:21;;;;;;;3.42;0.40;;;10.30;99.90;;;;;;5090610;28;20028;-35
2022/09/27 03:41:47;;;;;;;1.60;0.50;;;10.30;99.90;;;;;;5075744;28;20040;-33
2022/09/27 03:44:13;;;;;;;5.38;0.60;;;10.30;99.90;;;;;;5093173;28;20399;-34
2022/09/27 03:46:38;;;;;;;3.50;1.27;;;10.20;99.90;;;;;;5076544;28;20044;-33
2022/09/27 03:49:04;;;;;;;5.32;1.23;;;10.20;99.90;;;;;;5092116;28;20020;-35
2022/09/27 03:51:29;;;;;;;1.90;0.50;;;10.20;99.90;;;;;;5090904;28;20384;-39
2022/09/27 03:53:55;;;;;;;7.45;0.68;;;10.10;99.90;;;;;;5079273;28;20048;-34
2022/09/27 03:56:21;;;;;;;1.65;0.43;;;10.10;99.90;;;;;;5093726;28;20024;-37
2022/09/27 03:58:47;;;;;;;5.95;0.50;;;10.00;99.90;;;;;;5092246;28;20150;-31
2022/09/27 04:01:13;;;;;;;3.20;0.40;;;10.00;99.90;;;;;;5075139;28;20036;-38
2022/09/27 04:03:39;;;;;;;3.67;0.75;;;10.00;99.90;;;;;;5087613;28;20492;-33
2022/09/27 04:06:05;;;;;;;7.78;1.02;;;9.90;99.90;;;;;;5093725;28;20046;-33
2022/09/27 04:08:30;;;;;;;5.30;0.82;;;9.90;99.90;;;;;;5084742;28;20477;-36
2022/09/27 04:10:56;;;;;;;2.40;1.33;;;9.90;99.90;;;;;;5091548;28;20035;-37
2022/09/27 04:13:22;;;;;;;3.25;0.82;;;9.90;99.90;;;;;;5093852;28;20024;-34
2022/09/27 04:15:48;;;;;;;4.03;0.45;;;9.90;99.90;;;;;;5089164;28;20028;-34
2022/09/27 04:18:14;;;;;;;3.35;0.70;;;9.90;99.90;;;;;;5074155;28;20028;-34
2022/09/27 04:20:39;;;;;;;0.93;0.43;;;9.90;99.90;;;;;;5075840;28;20039;-37
2022/09/27 04:23:05;;;;;;;2.33;0.60;;;9.90;99.90;;;;;;5071941;28;20118;-32
2022/09/27 04:25:34;;;;;;;3.80;0.80;;;10.00;99.90;;;;;;5087226;28;20566;-32
2022/09/27 04:28:00;;;;;;;3.03;1.00;;;9.90;99.90;;;;;;5092682;28;20217;-34
2022/09/27 04:30:29;;;;;;;2.72;0.75;;;9.90;99.90;;;;;;5093242;28;20024;-39
2022/09/27 04:32:54;;;;;;;1.90;0.30;;;9.90;99.90;;;;;;5089854;28;20039;-37
2022/09/27 04:38:04;;;;;;;2.13;0.50;;;9.90;99.90;;;;;;5075120;28;20066;-37
2022/09/27 04:40:32;;;;;;;4.30;0.38;;;9.90;99.90;;;;;;5082030;28;20496;-50
2022/09/27 04:42:58;;;;;;;2.35;0.43;;;9.90;99.90;;;;;;5083448;28;20040;-33
2022/09/27 04:45:23;;;;;;;0.68;0.32;;;10.00;99.90;;;;;;5079573;28;20066;-33
2022/09/27 04:47:50;;;;;;;2.40;0.55;;;10.00;99.90;;;;;;5073634;28;20029;-31
2022/09/27 04:50:16;;;;;;;6.05;1.05;;;10.00;99.90;;;;;;5080822;28;20042;-34
2022/09/27 04:52:42;;;;;;;7.68;0.68;;;10.00;99.90;;;;;;5081775;28;20384;-38
2022/09/27 04:55:09;;;;;;;9.32;0.75;;;10.00;99.90;;;;;;5081308;28;20599;-34
2022/09/27 04:57:35;;;;;;;5.60;0.73;;;10.00;99.90;;;;;;5082061;28;20647;-32
2022/09/27 05:00:03;;;;;;;2.92;0.63;;;9.90;99.90;;;;;;5072949;28;20455;-31
2022/09/27 05:02:29;;;;;;;4.95;0.77;;;10.00;99.90;;;;;;5081574;28;20032;-34
2022/09/27 05:04:58;;;;;;;12.20;0.80;;;9.90;99.90;;;;;;5085196;28;20021;-32
2022/09/27 05:07:26;;;;;;;1.80;0.43;;;9.90;99.90;;;;;;5081344;28;20020;-31
2022/09/27 05:09:52;;;;;;;9.40;1.08;;;9.90;99.90;;;;;;5084077;28;20029;-33
2022/09/27 05:12:18;;;;;;;5.68;0.90;;;9.90;99.90;;;;;;5083937;28;20033;-31
2022/09/27 05:14:44;;;;;;;5.18;0.60;;;9.80;99.90;;;;;;5083460;28;20125;-35
2022/09/27 05:17:10;;;;;;;2.15;0.70;;;9.80;99.90;;;;;;5084508;28;20021;-30
2022/09/27 05:19:38;;;;;;;3.72;0.95;;;9.90;99.90;;;;;;5085488;28;20059;-35
2022/09/27 05:22:05;;;;;;;3.08;0.63;;;9.90;99.90;;;;;;5090883;28;20365;-30
2022/09/27 05:24:32;;;;;;;3.67;1.00;;;9.90;99.90;;;;;;5073450;28;20040;-40
2022/09/27 05:26:58;;;;;;;4.07;0.57;;;9.80;99.90;;;;;;5075494;28;20515;-35
2022/09/27 05:29:24;;;;;;;3.33;0.65;;;9.90;99.90;;;;;;5089185;28;20127;-32
2022/09/27 05:31:49;;;;;;;4.93;0.60;;;9.80;99.90;;;;;;5087396;28;20100;-32
2022/09/27 05:34:16;;;;;;;3.65;0.43;;;9.80;99.90;;;;;;5081911;28;20030;-31
2022/09/27 05:36:42;;;;;;;3.77;1.10;;;9.90;99.90;;;;;;5091042;28;20035;-30
2022/09/27 05:39:08;;;;;;;3.80;0.68;;;9.80;99.90;;;;;;5085909;28;20468;-34
2022/09/27 05:41:33;;;;;;;5.60;0.98;;;9.80;99.90;;;;;;5082181;28;20032;-30
2022/09/27 05:44:00;;;;;;;3.10;0.55;;;9.90;99.90;;;;;;5076739;28;20081;-35
2022/09/27 05:46:25;;;;;;;3.65;0.68;;;9.90;99.90;;;;;;5089146;28;20020;-35
2022/09/27 05:48:51;;;;;;;4.05;1.23;;;9.90;99.90;;;;;;5086629;28;20442;-35
2022/09/27 05:51:18;;;;;;;4.70;0.90;;;10.00;99.90;;;;;;5088719;28;20028;-34
2022/09/27 05:53:43;;;;;;;1.58;0.35;;;9.90;99.90;;;;;;5083145;28;20027;-30
2022/09/27 05:56:09;;;;;;;6.57;0.93;;;9.90;99.90;;;;;;5078415;28;20016;-33
2022/09/27 06:01:19;;;;;;;4.05;1.10;;;10.00;99.90;;;;;;5091427;28;20515;-33
2022/09/27 06:03:46;;;;;;;2.13;0.40;;;10.00;99.90;;;;;;5091723;28;20032;-35
2022/09/27 06:06:13;;;;;;;3.83;0.93;;;10.00;99.90;;;;;;5080344;28;20035;-34
2022/09/27 06:08:39;;;;;;;8.82;0.60;;;10.00;99.90;;;;;;5092195;28;20020;-33
2022/09/27 06:11:07;;;;;;;14.20;1.88;;;10.00;99.90;;;;;;5090679;28;20035;-38
2022/09/27 06:13:35;;;;;;;2.60;0.82;;;10.00;99.90;;;;;;5077963;28;20095;-30
2022/09/27 06:16:01;;;;;;;2.85;0.57;;;10.00;99.90;;;;;;5077747;28;20464;-37
2022/09/27 06:18:27;;;;;;;5.43;1.10;;;10.00;99.90;;;;;;5079010;28;20477;-42
2022/09/27 06:20:53;;;;;;;1.05;0.50;;;10.10;99.90;;;;;;5085065;28;20110;-31
2022/09/27 06:23:22;;;;;;;5.90;0.68;;;10.10;99.90;;;;;;5079138;28;20029;-33
2022/09/27 06:25:49;;;;;;;1.52;0.77;;;10.10;99.90;;;;;;5079541;28;20539;-34
2022/09/27 06:28:15;;;;;;;2.20;0.50;;;10.10;99.90;;;;;;5066757;28;20020;-38
2022/09/27 06:30:43;;;;;;;2.50;0.60;;;10.10;99.90;;;;;;5083708;28;20034;-37
2022/09/27 06:33:12;;;;;;;6.85;0.73;;;10.10;99.90;;;;;;5072310;28;20021;-33
2022/09/27 06:35:38;;;;;;;2.88;0.70;;;10.20;99.90;;;;;;5058224;28;20469;-31
2022/09/27 06:38:08;;;;;;;4.35;1.00;;;10.20;99.90;;;;;;5072956;28;20067;-35
2022/09/27 06:40:34;;;;;;;2.42;0.73;;;10.20;99.90;;;;;;5074759;28;20357;-37
2022/09/27 06:43:04;;;;;;;5.70;1.55;;;10.20;99.90;;;;;;5082733;28;20028;-37
2022/09/27 06:45:31;;;;;;;2.50;0.77;;;10.30;99.90;;;;;;5072219;28;20024;-34
2022/09/27 06:47:58;;;;;;;2.88;0.80;;;10.30;99.90;;;;;;5079586;28;20031;-37
2022/09/27 06:50:24;;;;;;;7.28;0.70;;;10.30;99.90;;;;;;5077318;28;20492;-38
2022/09/27 06:53:11;;;;;;;3.00;0.70;;;10.40;99.90;;;;;;5079640;28;20020;-37
2022/09/27 06:55:37;;;;;;;4.47;1.05;;;10.40;99.90;;;;;;5088895;28;20484;-31
2022/09/27 07:00:50;;;;;;;1.88;0.30;;;10.50;99.90;;;;;;5088108;28;20599;-37
2022/09/27 07:03:15;;;;;;;7.80;1.02;;;10.60;99.90;;;;;;5091195;28;20030;-34
2022/09/27 07:05:41;;;;;;;2.67;0.93;;;10.70;99.90;;;;;;5095707;28;20468;-33
2022/09/27 07:08:10;;;;;;;6.68;1.02;;;10.80;99.90;;;;;;5095771;28;20024;-33
2022/09/27 07:10:38;;;;;;;2.38;1.08;;;10.90;99.90;;;;;;5062387;28;20357;-35
2022/09/27 07:13:06;;;;;;;;;;;11.00;99.90;;;;;;5089595;28;20384;-35
2022/09/27 07:15:31;;;;;;;2.55;0.88;;;11.10;99.90;;;;;;5089299;28;20369;-32
2022/09/27 07:17:58;;;;;;;4.00;1.80;;;11.10;99.90;;;;;;5075024;28;20096;-36
2022/09/27 07:20:25;;;;;;;7.47;1.25;;;11.20;99.90;;;;;;5079151;28;20469;-36
2022/09/27 07:22:52;;;;;;;6.20;1.00;;;11.20;99.90;;;;;;5087360;28;20032;-35
2022/09/27 07:25:18;;;;;;;0.93;0.60;;;11.20;99.90;;;;;;5090444;28;20036;-37
2022/09/27 07:27:43;;;;;;;4.38;0.80;;;11.20;99.90;;;;;;5091456;28;20032;-32
2022/09/27 07:30:10;;;;;;;8.13;0.80;;;11.10;99.90;;;;;;5075105;28;20020;-34
2022/09/27 07:32:37;;;;;;;3.23;0.70;;;11.10;99.90;;;;;;5079031;28;20024;-38
2022/09/27 07:35:07;;;;;;;4.80;0.63;;;11.00;99.90;;;;;;5082633;28;20085;-34
2022/09/27 07:37:34;;;;;;;37.85;21.67;;;11.00;99.90;;;;;;5088470;28;20039;-33
2022/09/27 07:40:01;;;;;;;12.43;8.13;;;11.00;99.90;;;;;;5089866;28;20028;-36
2022/09/27 07:42:27;;;;;;;3.60;1.20;;;11.00;99.90;;;;;;5075280;28;20025;-35
2022/09/27 07:44:54;;;;;;;8.48;2.00;;;11.00;99.90;;;;;;5088627;28;20032;-40
2022/09/27 07:47:22;;;;;;;18.15;7.63;;;11.00;99.90;;;;;;5074444;28;20293;-40
2022/09/27 07:49:48;;;;;;;28.30;14.40;;;11.00;99.90;;;;;;5081256;28;20487;-34
2022/09/27 07:52:14;;;;;;;15.50;7.78;;;11.00;99.90;;;;;;5087488;28;20044;-36
2022/09/27 07:54:39;;;;;;;36.17;20.55;;;11.00;99.90;;;;;;5078281;28;20419;-34
2022/09/27 07:57:05;;;;;;;10.40;4.45;;;11.00;99.90;;;;;;5087789;28;20036;-34
2022/09/27 07:59:30;;;;;;;8.85;1.80;;;11.00;99.90;;;;;;5081796;28;20059;-35
2022/09/27 08:01:56;;;;;;;6.97;1.00;;;10.90;99.90;;;;;;5067867;28;20025;-32
2022/09/27 08:04:22;;;;;;;7.60;2.40;;;10.90;99.90;;;;;;5085025;28;20451;-38
2022/09/27 08:06:47;;;;;;;16.23;5.13;;;10.90;99.90;;;;;;5088376;28;20027;-40
2022/09/27 08:09:13;;;;;;;16.88;10.73;;;10.90;99.90;;;;;;5093584;28;20031;-33
2022/09/27 08:11:38;;;;;;;38.05;20.55;;;10.90;99.90;;;;;;5077168;28;20044;-42
2022/09/27 08:14:04;;;;;;;66.15;37.65;;;10.90;99.90;;;;;;5083932;28;20012;-32
2022/09/27 08:16:32;;;;;;;7.28;3.35;;;10.90;99.90;;;;;;5090680;28;20396;-33
2022/09/27 08:18:58;;;;;;;;;;;10.90;99.90;;;;;;5073116;28;20443;-35
2022/09/27 08:21:23;;;;;;;5.85;1.80;;;10.80;99.90;;;;;;5086150;28;19954;-33
2022/09/27 08:23:49;;;;;;;1.92;0.50;;;10.80;99.90;;;;;;5092332;28;20043;-42
2022/09/27 08:26:14;;;;;;;11.73;4.80;;;10.70;99.90;;;;;;5074199;28;20036;-40
2022/09/27 08:28:43;;;;;;;8.13;4.80;;;10.60;99.90;;;;;;5079813;28;20029;-33
2022/09/27 08:31:09;;;;;;;13.45;7.20;;;10.60;99.90;;;;;;5073455;28;20024;-41
2022/09/27 08:33:34;;;;;;;6.38;1.08;;;10.50;99.90;;;;;;5093909;28;20016;-34
2022/09/27 08:36:02;;;;;;;4.05;0.47;;;10.40;99.90;;;;;;5093075;28;20028;-34
2022/09/27 08:38:27;;;;;;;4.55;0.40;;;10.30;99.90;;;;;;5087402;28;20499;-38
2022/09/27 08:41:13;;;;;;;6.65;0.82;;;10.20;99.90;;;;;;5078375;28;20027;-35
2022/09/27 08:43:54;;;;;;;2.90;1.58;;;10.20;99.90;;;;;;5073894;28;20119;-37
2022/09/27 08:46:47;;;;;;;6.20;0.75;;;10.20;99.90;;;;;;5075723;28;20506;-37
2022/09/27 08:49:15;;;;;;;2.45;0.30;;;10.10;99.90;;;;;;5022019;28;20040;-34
2022/09/27 08:51:45;;;;;;;7.88;4.97;;;10.10;99.90;;;;;;5086533;28;20492;-41
2022/09/27 08:54:20;;;;;;;3.42;0.52;;;10.10;99.90;;;;;;5090544;28;20408;-34
2022/09/27 08:56:50;;;;;;;2.40;0.47;;;10.00;99.90;;;;;;5093645;28;20028;-36
2022/09/27 08:59:20;;;;;;;5.07;0.40;;;9.90;99.90;;;;;;5093903;28;20384;-39
2022/09/27 09:01:51;;;;;;;5.70;0.85;;;9.90;99.90;;;;;;5093837;28;20020;-34
2022/09/27 09:04:30;;;;;;;21.08;9.40;;;9.80;99.90;;;;;;5093498;28;20016;-36
2022/09/27 09:07:23;;;;;;;1.25;1.10;;;9.70;99.90;;;;;;5093847;28;20062;-41
2022/09/27 09:09:58;;;;;;;0.77;0.77;;;9.70;99.90;;;;;;5093491;28;20024;-38
2022/09/27 09:12:48;;;;;;;2.42;0.40;;;9.70;99.90;;;;;;5093372;28;20016;-42
2022/09/27 09:15:23;;;;;;;1.52;0.50;;;9.80;99.90;;;;;;5093372;28;20024;-35
2022/09/27 09:18:19;;;;;;;3.53;0.68;;;9.70;99.90;;;;;;5093390;28;20020;-38
2022/09/27 09:21:10;;;;;;;2.38;0.35;;;9.70;99.90;;;;;;5093579;28;20059;-36
2022/09/27 09:23:48;;;;;;;2.67;0.60;;;9.70;99.90;;;;;;5092269;28;20048;-38
2022/09/27 09:26:25;;;;;;;8.82;5.03;;;9.70;99.90;;;;;;5093395;28;20087;-38
2022/09/27 09:28:58;;;;;;;11.68;7.50;;;9.80;99.90;;;;;;5075868;28;20020;-33
2022/09/27 09:31:46;;;;;;;17.40;10.50;;;9.90;99.90;;;;;;5093125;28;20074;-32
2022/09/27 09:34:19;;;;;;;4.50;3.60;;;10.00;99.90;;;;;;5093037;28;20484;-35
2022/09/27 09:36:55;;;;;;;2.55;0.90;;;10.20;99.90;;;;;;5093388;28;20012;-33
2022/09/27 09:39:32;;;;;;;3.97;0.82;;;10.20;99.90;;;;;;5083012;28;20384;-38
2022/09/27 09:42:15;;;;;;;1.77;0.57;;;10.30;99.90;;;;;;5073150;28;20409;-40
2022/09/27 09:44:58;;;;;;;5.07;0.50;;;10.30;99.90;;;;;;5054287;28;20400;-58
2022/09/27 09:47:34;;;;;;;4.75;0.60;;;10.30;99.90;;;;;;5076448;28;20070;-38
2022/09/27 09:50:05;;;;;;;4.95;0.50;;;10.30;99.90;;;;;;5092913;28;20073;-38
2022/09/27 09:52:41;;;;;;;2.30;0.70;;;10.30;99.90;;;;;;5093151;28;20487;-36
2022/09/27 09:55:19;;;;;;;1.48;0.82;;;10.20;99.90;;;;;;5093114;28;20577;-34
2022/09/27 09:57:54;;;;;;;3.67;0.60;;;10.20;99.90;;;;;;5092900;28;20099;-34
2022/09/27 10:00:19;;;;;;;4.88;0.47;;;10.10;99.90;;;;;;5092826;28;20016;-38
2022/09/27 10:02:47;;;;;;;135.10;55.63;;;10.10;99.90;;;;;;5085083;28;20047;-39
2022/09/27 10:05:19;;;;;;;79.28;39.55;;;10.10;99.90;;;;;;5076797;28;20138;-33
2022/09/27 10:07:46;;;;;;;33.28;14.85;;;10.10;99.90;;;;;;5092765;28;20095;-33
2022/09/27 10:10:15;;;;;;;8.73;4.83;;;10.20;99.90;;;;;;5086185;28;20112;-34
2022/09/27 10:12:41;;;;;;;25.50;12.43;;;10.20;99.90;;;;;;5077007;28;20032;-36
2022/09/27 10:15:15;;;;;;;72.57;29.48;;;10.30;99.90;;;;;;5066236;28;20032;-32
2022/09/27 10:17:46;;;;;;;72.93;31.67;;;10.50;99.90;;;;;;5083652;28;20523;-33
2022/09/27 10:20:29;;;;;;;31.38;15.23;;;10.60;99.90;;;;;;5091100;28;20376;-37
2022/09/27 10:23:02;;;;;;;88.85;37.95;;;10.70;99.90;;;;;;5090864;28;20377;-34
2022/09/27 10:25:49;;;;;;;89.25;37.97;;;10.80;99.90;;;;;;5072643;28;20032;-34
2022/09/27 10:28:37;;;;;;;84.40;32.38;;;10.90;99.90;;;;;;5072399;28;20029;-37
2022/09/27 10:31:05;;;;;;;;;;;10.90;99.90;;;;;;5073045;28;20409;-41
2022/09/27 10:33:31;;;;;;;41.03;19.00;;;10.90;99.90;;;;;;5054593;28;19909;-36
2022/09/27 10:35:57;;;;;;;110.50;40.03;;;10.90;99.90;;;;;;5076354;28;20384;-38
2022/09/27 10:38:23;;;;;;;57.53;22.02;;;10.80;99.90;;;;;;5095794;28;20016;-41
2022/09/27 10:40:57;;;;;;;151.57;61.30;;;10.80;99.90;;;;;;5096420;28;20031;-33
2022/09/27 10:43:29;;;;;;;35.92;16.20;;;10.70;99.90;;;;;;5096271;28;20499;-39
2022/09/27 10:46:26;;;;;;;18.90;6.80;;;10.60;99.90;;;;;;5096182;28;20052;-34
2022/09/27 10:49:26;;;;;;;267.38;124.50;;;10.70;99.90;;;;;;5088576;28;20520;-43
2022/09/27 10:52:04;;;;;;;29.15;16.77;;;10.70;99.90;;;;;;5096109;28;20024;-38
2022/09/27 10:54:34;;;;;;;37.67;15.88;;;10.80;99.90;;;;;;5095888;28;20028;-34
2022/09/27 10:57:04;;;;;;;5.03;2.13;;;10.80;99.90;;;;;;5096035;28;20556;-33
2022/09/27 10:59:33;;;;;;;20.50;12.52;;;10.80;99.90;;;;;;5096010;28;20483;-35
2022/09/27 11:01:59;;;;;;;5.10;1.83;;;10.80;99.90;;;;;;5096105;28;20498;-50
2022/09/27 11:04:32;;;;;;;43.13;23.40;;;10.80;99.90;;;;;;5095740;28;20032;-33
2022/09/27 11:07:17;;;;;;;8.27;3.88;;;10.80;99.90;;;;;;5095879;28;20020;-36
2022/09/27 11:09:53;;;;;;;2.38;1.38;;;10.80;99.90;;;;;;5095788;28;20028;-53
2022/09/27 11:12:21;;;;;;;6.55;2.17;;;10.80;99.90;;;;;;5095551;28;20074;-54
2022/09/27 11:15:01;;;;;;;3.78;1.73;;;10.80;99.90;;;;;;5077453;28;20472;-34
2022/09/27 11:17:55;;;;;;;4.32;1.17;;;10.80;99.90;;;;;;5093943;28;20040;-51
2022/09/27 11:20:51;;;;;;;1.27;0.98;;;10.80;99.90;;;;;;5075401;28;20111;-34
2022/09/27 11:23:25;;;;;;;4.90;0.95;;;10.80;99.90;;;;;;5075023;28;20032;-32
2022/09/27 11:26:09;;;;;;;7.03;1.70;;;10.80;99.90;;;;;;5092464;28;20500;-35
2022/09/27 11:28:46;;;;;;;3.92;2.00;;;10.80;99.90;;;;;;5085412;28;20186;-33
2022/09/27 11:31:54;;;;;;;7.90;3.35;;;10.80;99.90;;;;;;5091224;28;20076;-31
2022/09/27 11:34:47;;;;;;;16.83;6.53;;;10.70;99.90;;;;;;5053965;28;20543;-34
2022/09/27 11:37:22;;;;;;;5.85;3.97;;;10.70;99.90;;;;;;5090749;28;20024;-44
2022/09/27 11:40:11;;;;;;;12.98;5.22;;;10.70;99.90;;;;;;5074830;28;20078;-49
2022/09/27 11:42:55;;;;;;;11.45;3.47;;;10.60;99.90;;;;;;5078019;28;20020;-37
2022/09/27 11:45:57;;;;;;;4.38;2.60;;;10.60;99.90;;;;;;5094079;28;20032;-31
2022/09/27 11:48:31;;;;;;;32.00;15.52;;;10.50;99.90;;;;;;5042844;28;20552;-31
2022/09/27 11:51:28;;;;;;;17.45;8.05;;;10.50;99.90;;;;;;5095071;28;20425;-48
2022/09/27 11:54:34;;;;;;;3.15;2.85;;;10.40;99.90;;;;;;5088251;28;20040;-39
2022/09/27 11:57:25;;;;;;;8.38;2.70;;;10.30;99.90;;;;;;5074689;28;20549;-33
2022/09/27 12:00:07;;;;;;;26.85;13.50;;;10.30;99.90;;;;;;5074577;28;20072;-37
2022/09/27 12:03:04;;;;;;;15.43;6.63;;;10.20;99.90;;;;;;5087484;28;20511;-36
2022/09/27 12:05:51;;;;;;;113.00;54.92;;;10.20;99.90;;;;;;5076450;28;20377;-32
2022/09/27 12:08:43;;;;;;;13.93;8.57;;;10.20;99.90;;;;;;5094664;28;20027;-30
2022/09/27 12:11:20;;;;;;;11.10;6.82;;;10.10;99.90;;;;;;5094597;28;20028;-34
2022/09/27 12:13:55;;;;;;;20.83;12.10;;;10.00;99.90;;;;;;5094554;28;20036;-34
2022/09/27 12:16:22;;;;;;;8.88;5.28;;;10.00;99.90;;;;;;5094469;28;20273;-31
2022/09/27 12:18:51;;;;;;;1.83;1.73;;;10.00;99.90;;;;;;5094390;28;20518;-32
2022/09/27 12:21:17;;;;;;;12.00;5.80;;;10.00;99.90;;;;;;5094597;28;20074;-38
2022/09/27 12:23:47;;;;;;;3.05;2.72;;;10.00;99.90;;;;;;5094146;28;20468;-32
2022/09/27 12:26:36;;;;;;;3.55;1.70;;;10.00;99.90;;;;;;5094438;28;20468;-34
2022/09/27 12:29:12;;;;;;;32.50;19.88;;;9.90;99.90;;;;;;5094213;28;20069;-31
2022/09/27 12:32:00;;;;;;;6.10;2.47;;;9.90;99.90;;;;;;5088427;28;20392;-34
2022/09/27 12:34:37;;;;;;;7.80;4.13;;;9.90;99.90;;;;;;5074047;28;20020;-32
2022/09/27 12:37:29;;;;;;;48.70;21.17;;;9.90;99.90;;;;;;5091173;28;20487;-34
2022/09/27 12:40:14;;;;;;;29.35;16.05;;;10.00;99.90;;;;;;5094313;28;20392;-34
2022/09/27 12:42:58;;;;;;;7.53;3.47;;;10.10;99.90;;;;;;5093921;28;20494;-38
2022/09/27 12:45:42;;;;;;;7.13;3.50;;;10.10;99.90;;;;;;5093883;28;20024;-35
2022/09/27 12:48:24;;;;;;;9.35;3.03;;;10.20;99.90;;;;;;5093832;28;20049;-35
2022/09/27 12:51:02;;;;;;;12.25;5.80;;;10.20;99.90;;;;;;5089872;28;20027;-37
2022/09/27 12:53:38;;;;;;;2.47;1.95;;;10.20;99.90;;;;;;5083519;28;20555;-34
2022/09/27 12:56:11;;;;;;;4.57;2.65;;;10.30;99.90;;;;;;5075086;28;20365;-34
2022/09/27 12:58:37;;;;;;;26.88;14.02;;;10.40;99.90;;;;;;5086142;28;20037;-34
2022/09/27 13:01:24;;;;;;;52.25;31.00;;;10.40;99.90;;;;;;5063294;28;20036;-35
2022/09/27 13:03:59;;;;;;;5.10;2.42;;;10.40;99.90;;;;;;5082121;28;20024;-43
2022/09/27 13:06:46;;;;;;;7.20;3.85;;;10.50;99.90;;;;;;5079463;28;20036;-38
2022/09/27 13:09:25;;;;;;;23.63;16.10;;;10.60;99.90;;;;;;5080576;28;20495;-36
2022/09/27 13:12:13;;;;;;;1.27;1.17;;;10.70;99.90;;;;;;5084285;28;20027;-32
2022/09/27 13:15:12;;;;;;;10.43;9.38;;;10.70;99.90;;;;;;5073128;28;20036;-33
2022/09/27 13:17:39;;;;;;;16.60;13.68;;;10.80;99.90;;;;;;5084147;28;20028;-36
2022/09/27 13:20:43;;;;;;;3.40;1.17;;;10.90;99.90;;;;;;5093263;28;20039;-36
2022/09/27 13:23:17;;;;;;;4.75;0.85;;;11.00;99.90;;;;;;4991413;28;20109;-34
2022/09/27 13:25:50;;;;;;;1.73;1.63;;;11.30;99.90;;;;;;5080372;28;20515;-35